sensor_id;sensor_type;location;lat;lon;timestamp;P1;durP1;ratioP1;P2;durP2;ratioP2
20423;SDS011;10371;49.042;8.002;2023-03-24T00:00:58;4.70;;;4.30;;
20423;SDS011;10371;49.042;8.002;2023-03-24T00:02:00;5.60;;;5.10;;
20423;SDS011;10371;49.042;8.002;2023-03-24T00:03:00;5.30;;;4.90;;
20423;SDS011;10371;49.042;8.002;2023-03-24T00:04:01;6.97;;;5.82;;
20423;SDS011;10371;49.042;8.002;2023-03-24T00:05:02;6.63;;;5.95;;
20423;SDS011;10371;49.042;8.002;2023-03-24T00:06:04;6.30;;;5.68;;
20423;SDS011;10371;49.042;8.002;2023-03-24T00:07:06;7.10;;;5.85;;
20423;SDS011;10371;49.042;8.002;2023-03-24T00:08:07;7.30;;;6.35;;
20423;SDS011;10371;49.042;8.002;2023-03-24T00:09:08;6.80;;;5.93;;
20423;SDS011;10371;49.042;8.002;2023-03-24T00:10:09;6.60;;;5.93;;
20423;SDS011;10371;49.042;8.002;2023-03-24T00:11:14;6.28;;;5.68;;
20423;SDS011;10371;49.042;8.002;2023-03-24T00:12:17;7.70;;;6.07;;
20423;SDS011;10371;49.042;8.002;2023-03-24T00:13:17;6.00;;;5.40;;
20423;SDS011;10371;49.042;8.002;2023-03-24T00:14:17;6.20;;;5.70;;
20423;SDS011;10371;49.042;8.002;2023-03-24T00:15:19;6.55;;;5.95;;
20423;SDS011;10371;49.042;8.002;2023-03-24T00:16:20;7.28;;;5.70;;
20423;SDS011;10371;49.042;8.002;2023-03-24T00:17:20;6.68;;;5.55;;
20423;SDS011;10371;49.042;8.002;2023-03-24T00:18:24;7.47;;;5.85;;
20423;SDS011;10371;49.042;8.002;2023-03-24T00:19:25;6.70;;;6.10;;
20423;SDS011;10371;49.042;8.002;2023-03-24T00:20:25;6.00;;;5.50;;
20423;SDS011;10371;49.042;8.002;2023-03-24T00:21:25;6.13;;;5.25;;
20423;SDS011;10371;49.042;8.002;2023-03-24T00:22:26;6.68;;;5.60;;
20423;SDS011;10371;49.042;8.002;2023-03-24T00:23:28;6.70;;;5.40;;
20423;SDS011;10371;49.042;8.002;2023-03-24T00:24:33;5.93;;;5.43;;
20423;SDS011;10371;49.042;8.002;2023-03-24T00:25:34;6.28;;;5.68;;
20423;SDS011;10371;49.042;8.002;2023-03-24T00:26:39;6.25;;;5.65;;
20423;SDS011;10371;49.042;8.002;2023-03-24T00:27:40;5.93;;;5.43;;
20423;SDS011;10371;49.042;8.002;2023-03-24T00:28:42;5.68;;;5.28;;
20423;SDS011;10371;49.042;8.002;2023-03-24T00:29:44;5.68;;;5.10;;
20423;SDS011;10371;49.042;8.002;2023-03-24T00:30:44;5.55;;;5.15;;
20423;SDS011;10371;49.042;8.002;2023-03-24T00:31:51;5.32;;;4.93;;
20423;SDS011;10371;49.042;8.002;2023-03-24T00:32:52;5.35;;;4.68;;
20423;SDS011;10371;49.042;8.002;2023-03-24T00:33:53;4.68;;;4.28;;
20423;SDS011;10371;49.042;8.002;2023-03-24T00:34:53;4.53;;;4.20;;
20423;SDS011;10371;49.042;8.002;2023-03-24T00:35:54;4.38;;;4.05;;
20423;SDS011;10371;49.042;8.002;2023-03-24T00:36:54;4.95;;;4.43;;
20423;SDS011;10371;49.042;8.002;2023-03-24T00:37:54;4.68;;;4.03;;
20423;SDS011;10371;49.042;8.002;2023-03-24T00:38:55;5.40;;;4.85;;
20423;SDS011;10371;49.042;8.002;2023-03-24T00:39:56;5.43;;;4.93;;
20423;SDS011;10371;49.042;8.002;2023-03-24T00:40:59;5.93;;;5.25;;
20423;SDS011;10371;49.042;8.002;2023-03-24T00:42:00;5.90;;;4.85;;
20423;SDS011;10371;49.042;8.002;2023-03-24T00:43:02;6.40;;;5.80;;
20423;SDS011;10371;49.042;8.002;2023-03-24T00:44:02;7.10;;;6.38;;
20423;SDS011;10371;49.042;8.002;2023-03-24T00:45:05;7.70;;;6.30;;
20423;SDS011;10371;49.042;8.002;2023-03-24T00:46:10;8.80;;;6.80;;
20423;SDS011;10371;49.042;8.002;2023-03-24T00:47:12;8.07;;;6.47;;
20423;SDS011;10371;49.042;8.002;2023-03-24T00:48:17;7.22;;;6.43;;
20423;SDS011;10371;49.042;8.002;2023-03-24T00:49:19;7.47;;;6.07;;
20423;SDS011;10371;49.042;8.002;2023-03-24T00:50:24;7.13;;;6.43;;
20423;SDS011;10371;49.042;8.002;2023-03-24T00:51:25;7.53;;;6.72;;
20423;SDS011;10371;49.042;8.002;2023-03-24T00:52:25;7.30;;;6.28;;
20423;SDS011;10371;49.042;8.002;2023-03-24T00:53:33;7.97;;;6.38;;
20423;SDS011;10371;49.042;8.002;2023-03-24T00:54:34;7.65;;;6.35;;
20423;SDS011;10371;49.042;8.002;2023-03-24T00:55:35;7.18;;;6.32;;
20423;SDS011;10371;49.042;8.002;2023-03-24T00:56:37;7.25;;;6.18;;
20423;SDS011;10371;49.042;8.002;2023-03-24T00:57:39;6.13;;;5.20;;
20423;SDS011;10371;49.042;8.002;2023-03-24T00:58:39;6.10;;;4.95;;
20423;SDS011;10371;49.042;8.002;2023-03-24T00:59:40;5.53;;;4.88;;
20423;SDS011;10371;49.042;8.002;2023-03-24T01:00:48;6.30;;;5.70;;
20423;SDS011;10371;49.042;8.002;2023-03-24T01:01:50;5.55;;;5.05;;
20423;SDS011;10371;49.042;8.002;2023-03-24T01:02:51;6.07;;;4.97;;
20423;SDS011;10371;49.042;8.002;2023-03-24T01:03:53;6.15;;;5.03;;
20423;SDS011;10371;49.042;8.002;2023-03-24T01:04:57;5.63;;;5.03;;
20423;SDS011;10371;49.042;8.002;2023-03-24T01:06:01;5.80;;;5.20;;
20423;SDS011;10371;49.042;8.002;2023-03-24T01:07:02;5.57;;;4.97;;
20423;SDS011;10371;49.042;8.002;2023-03-24T01:08:03;4.70;;;4.30;;
20423;SDS011;10371;49.042;8.002;2023-03-24T01:09:04;6.55;;;5.20;;
20423;SDS011;10371;49.042;8.002;2023-03-24T01:10:05;5.50;;;5.00;;
20423;SDS011;10371;49.042;8.002;2023-03-24T01:11:07;7.22;;;5.00;;
20423;SDS011;10371;49.042;8.002;2023-03-24T01:12:07;5.80;;;4.70;;
20423;SDS011;10371;49.042;8.002;2023-03-24T01:13:08;5.45;;;5.03;;
20423;SDS011;10371;49.042;8.002;2023-03-24T01:14:09;5.10;;;4.68;;
20423;SDS011;10371;49.042;8.002;2023-03-24T01:15:12;5.55;;;5.05;;
20423;SDS011;10371;49.042;8.002;2023-03-24T01:16:15;6.13;;;5.22;;
20423;SDS011;10371;49.042;8.002;2023-03-24T01:17:15;5.35;;;4.85;;
20423;SDS011;10371;49.042;8.002;2023-03-24T01:18:15;5.43;;;4.93;;
20423;SDS011;10371;49.042;8.002;2023-03-24T01:19:16;5.40;;;4.90;;
20423;SDS011;10371;49.042;8.002;2023-03-24T01:20:17;5.60;;;5.10;;
20423;SDS011;10371;49.042;8.002;2023-03-24T01:21:18;5.68;;;5.15;;
20423;SDS011;10371;49.042;8.002;2023-03-24T01:22:19;5.15;;;4.75;;
20423;SDS011;10371;49.042;8.002;2023-03-24T01:23:21;5.75;;;5.10;;
20423;SDS011;10371;49.042;8.002;2023-03-24T01:24:23;5.18;;;4.78;;
20423;SDS011;10371;49.042;8.002;2023-03-24T01:25:24;6.10;;;5.60;;
20423;SDS011;10371;49.042;8.002;2023-03-24T01:26:24;6.30;;;5.50;;
20423;SDS011;10371;49.042;8.002;2023-03-24T01:27:25;6.78;;;6.00;;
20423;SDS011;10371;49.042;8.002;2023-03-24T01:28:25;6.25;;;5.65;;
20423;SDS011;10371;49.042;8.002;2023-03-24T01:29:26;6.65;;;6.05;;
20423;SDS011;10371;49.042;8.002;2023-03-24T01:30:26;7.57;;;5.53;;
20423;SDS011;10371;49.042;8.002;2023-03-24T01:31:28;6.63;;;5.80;;
20423;SDS011;10371;49.042;8.002;2023-03-24T01:32:28;6.18;;;5.68;;
20423;SDS011;10371;49.042;8.002;2023-03-24T01:33:28;6.57;;;5.95;;
20423;SDS011;10371;49.042;8.002;2023-03-24T01:34:29;5.90;;;5.38;;
20423;SDS011;10371;49.042;8.002;2023-03-24T01:35:29;8.23;;;6.00;;
20423;SDS011;10371;49.042;8.002;2023-03-24T01:36:29;5.90;;;5.40;;
20423;SDS011;10371;49.042;8.002;2023-03-24T01:37:30;6.68;;;5.82;;
20423;SDS011;10371;49.042;8.002;2023-03-24T01:38:30;6.22;;;5.70;;
20423;SDS011;10371;49.042;8.002;2023-03-24T01:39:31;6.32;;;5.72;;
20423;SDS011;10371;49.042;8.002;2023-03-24T01:40:32;6.22;;;5.55;;
20423;SDS011;10371;49.042;8.002;2023-03-24T01:41:36;5.90;;;5.20;;
20423;SDS011;10371;49.042;8.002;2023-03-24T01:42:38;6.03;;;5.50;;
20423;SDS011;10371;49.042;8.002;2023-03-24T01:43:39;6.03;;;5.53;;
20423;SDS011;10371;49.042;8.002;2023-03-24T01:44:39;6.68;;;6.07;;
20423;SDS011;10371;49.042;8.002;2023-03-24T01:45:44;7.18;;;6.47;;
20423;SDS011;10371;49.042;8.002;2023-03-24T01:46:54;7.32;;;6.32;;
20423;SDS011;10371;49.042;8.002;2023-03-24T01:47:55;7.22;;;6.53;;
20423;SDS011;10371;49.042;8.002;2023-03-24T01:48:57;6.60;;;6.00;;
20423;SDS011;10371;49.042;8.002;2023-03-24T01:50:01;7.32;;;6.63;;
20423;SDS011;10371;49.042;8.002;2023-03-24T01:51:21;7.03;;;6.43;;
20423;SDS011;10371;49.042;8.002;2023-03-24T01:52:29;6.68;;;6.00;;
20423;SDS011;10371;49.042;8.002;2023-03-24T01:53:32;7.30;;;6.60;;
20423;SDS011;10371;49.042;8.002;2023-03-24T01:54:45;6.85;;;6.25;;
20423;SDS011;10371;49.042;8.002;2023-03-24T01:55:49;6.40;;;5.88;;
20423;SDS011;10371;49.042;8.002;2023-03-24T01:56:53;6.50;;;5.90;;
20423;SDS011;10371;49.042;8.002;2023-03-24T01:57:59;6.75;;;6.15;;
20423;SDS011;10371;49.042;8.002;2023-03-24T01:59:03;7.07;;;6.38;;
20423;SDS011;10371;49.042;8.002;2023-03-24T02:00:11;6.32;;;5.72;;
20423;SDS011;10371;49.042;8.002;2023-03-24T02:01:13;5.97;;;5.45;;
20423;SDS011;10371;49.042;8.002;2023-03-24T02:02:14;6.07;;;5.53;;
20423;SDS011;10371;49.042;8.002;2023-03-24T02:03:17;6.85;;;6.22;;
20423;SDS011;10371;49.042;8.002;2023-03-24T02:04:20;6.72;;;6.13;;
20423;SDS011;10371;49.042;8.002;2023-03-24T02:05:22;5.93;;;5.40;;
20423;SDS011;10371;49.042;8.002;2023-03-24T02:06:29;6.40;;;5.90;;
20423;SDS011;10371;49.042;8.002;2023-03-24T02:07:38;6.60;;;5.90;;
20423;SDS011;10371;49.042;8.002;2023-03-24T02:09:56;5.53;;;5.03;;
20423;SDS011;10371;49.042;8.002;2023-03-24T02:10:56;6.25;;;5.65;;
20423;SDS011;10371;49.042;8.002;2023-03-24T02:11:59;6.18;;;5.68;;
20423;SDS011;10371;49.042;8.002;2023-03-24T02:12:59;6.93;;;5.45;;
20423;SDS011;10371;49.042;8.002;2023-03-24T02:14:00;5.18;;;4.75;;
20423;SDS011;10371;49.042;8.002;2023-03-24T02:15:02;5.75;;;5.25;;
20423;SDS011;10371;49.042;8.002;2023-03-24T02:17:29;6.00;;;5.40;;
20423;SDS011;10371;49.042;8.002;2023-03-24T02:31:43;6.53;;;5.00;;
20423;SDS011;10371;49.042;8.002;2023-03-24T02:40:52;4.65;;;4.20;;
20423;SDS011;10371;49.042;8.002;2023-03-24T02:46:43;4.35;;;3.88;;
20423;SDS011;10371;49.042;8.002;2023-03-24T02:49:27;4.70;;;4.30;;
20423;SDS011;10371;49.042;8.002;2023-03-24T02:51:46;4.85;;;4.45;;
20423;SDS011;10371;49.042;8.002;2023-03-24T02:53:06;5.05;;;4.50;;
20423;SDS011;10371;49.042;8.002;2023-03-24T02:57:22;5.35;;;4.95;;
20423;SDS011;10371;49.042;8.002;2023-03-24T02:58:37;5.28;;;4.70;;
20423;SDS011;10371;49.042;8.002;2023-03-24T02:59:50;5.68;;;4.47;;
20423;SDS011;10371;49.042;8.002;2023-03-24T03:00:58;5.90;;;4.60;;
20423;SDS011;10371;49.042;8.002;2023-03-24T03:02:06;5.00;;;4.43;;
20423;SDS011;10371;49.042;8.002;2023-03-24T03:03:13;9.02;;;4.20;;
20423;SDS011;10371;49.042;8.002;2023-03-24T03:04:19;4.35;;;3.95;;
20423;SDS011;10371;49.042;8.002;2023-03-24T03:05:26;4.20;;;3.80;;
20423;SDS011;10371;49.042;8.002;2023-03-24T03:06:33;4.00;;;3.70;;
20423;SDS011;10371;49.042;8.002;2023-03-24T03:07:38;3.75;;;3.38;;
20423;SDS011;10371;49.042;8.002;2023-03-24T03:08:40;4.65;;;3.70;;
20423;SDS011;10371;49.042;8.002;2023-03-24T03:09:43;3.95;;;3.65;;
20423;SDS011;10371;49.042;8.002;2023-03-24T03:10:50;4.10;;;3.67;;
20423;SDS011;10371;49.042;8.002;2023-03-24T03:11:55;3.75;;;3.28;;
20423;SDS011;10371;49.042;8.002;2023-03-24T03:12:59;5.00;;;3.40;;
20423;SDS011;10371;49.042;8.002;2023-03-24T03:14:12;3.67;;;3.35;;
20423;SDS011;10371;49.042;8.002;2023-03-24T03:15:30;4.35;;;3.47;;
20423;SDS011;10371;49.042;8.002;2023-03-24T03:16:42;4.05;;;3.53;;
20423;SDS011;10371;49.042;8.002;2023-03-24T03:17:51;3.83;;;3.35;;
20423;SDS011;10371;49.042;8.002;2023-03-24T03:19:02;4.07;;;3.35;;
20423;SDS011;10371;49.042;8.002;2023-03-24T03:20:12;3.60;;;3.30;;
20423;SDS011;10371;49.042;8.002;2023-03-24T03:21:18;3.97;;;3.45;;
20423;SDS011;10371;49.042;8.002;2023-03-24T03:22:23;3.67;;;3.38;;
20423;SDS011;10371;49.042;8.002;2023-03-24T03:23:34;3.65;;;3.35;;
20423;SDS011;10371;49.042;8.002;2023-03-24T03:24:39;3.50;;;3.20;;
20423;SDS011;10371;49.042;8.002;2023-03-24T03:25:43;3.60;;;3.30;;
20423;SDS011;10371;49.042;8.002;2023-03-24T03:26:49;3.42;;;3.13;;
20423;SDS011;10371;49.042;8.002;2023-03-24T03:27:51;3.75;;;3.45;;
20423;SDS011;10371;49.042;8.002;2023-03-24T03:28:56;3.78;;;3.47;;
20423;SDS011;10371;49.042;8.002;2023-03-24T03:30:07;3.20;;;2.90;;
20423;SDS011;10371;49.042;8.002;2023-03-24T03:31:16;2.70;;;2.50;;
20423;SDS011;10371;49.042;8.002;2023-03-24T03:32:24;3.42;;;2.83;;
20423;SDS011;10371;49.042;8.002;2023-03-24T03:33:45;3.20;;;3.00;;
20423;SDS011;10371;49.042;8.002;2023-03-24T03:36:10;3.28;;;2.97;;
20423;SDS011;10371;49.042;8.002;2023-03-24T03:37:26;4.65;;;3.30;;
20423;SDS011;10371;49.042;8.002;2023-03-24T03:38:41;3.45;;;3.08;;
20423;SDS011;10371;49.042;8.002;2023-03-24T03:39:51;3.28;;;2.97;;
20423;SDS011;10371;49.042;8.002;2023-03-24T03:41:19;3.50;;;3.20;;
20423;SDS011;10371;49.042;8.002;2023-03-24T03:42:20;4.45;;;3.47;;
20423;SDS011;10371;49.042;8.002;2023-03-24T03:43:21;3.47;;;3.17;;
20423;SDS011;10371;49.042;8.002;2023-03-24T03:44:22;3.38;;;3.08;;
20423;SDS011;10371;49.042;8.002;2023-03-24T03:45:23;3.25;;;2.92;;
20423;SDS011;10371;49.042;8.002;2023-03-24T03:46:23;3.70;;;3.25;;
20423;SDS011;10371;49.042;8.002;2023-03-24T03:47:24;3.85;;;3.47;;
20423;SDS011;10371;49.042;8.002;2023-03-24T03:48:24;3.63;;;3.30;;
20423;SDS011;10371;49.042;8.002;2023-03-24T03:49:25;3.70;;;3.40;;
20423;SDS011;10371;49.042;8.002;2023-03-24T03:50:26;4.35;;;3.47;;
20423;SDS011;10371;49.042;8.002;2023-03-24T03:51:27;3.60;;;3.30;;
20423;SDS011;10371;49.042;8.002;2023-03-24T03:52:27;3.83;;;3.53;;
20423;SDS011;10371;49.042;8.002;2023-03-24T03:53:35;3.63;;;3.30;;
20423;SDS011;10371;49.042;8.002;2023-03-24T03:54:42;4.60;;;4.20;;
20423;SDS011;10371;49.042;8.002;2023-03-24T03:55:43;4.00;;;3.60;;
20423;SDS011;10371;49.042;8.002;2023-03-24T03:56:44;3.90;;;3.60;;
20423;SDS011;10371;49.042;8.002;2023-03-24T03:57:47;4.22;;;3.78;;
20423;SDS011;10371;49.042;8.002;2023-03-24T03:58:47;4.65;;;4.10;;
20423;SDS011;10371;49.042;8.002;2023-03-24T03:59:49;4.55;;;4.15;;
20423;SDS011;10371;49.042;8.002;2023-03-24T04:00:49;4.90;;;4.50;;
20423;SDS011;10371;49.042;8.002;2023-03-24T04:01:50;4.80;;;4.30;;
20423;SDS011;10371;49.042;8.002;2023-03-24T04:04:24;5.18;;;4.70;;
20423;SDS011;10371;49.042;8.002;2023-03-24T04:05:40;5.10;;;4.68;;
20423;SDS011;10371;49.042;8.002;2023-03-24T04:08:10;5.70;;;4.90;;
20423;SDS011;10371;49.042;8.002;2023-03-24T04:09:24;5.78;;;5.28;;
20423;SDS011;10371;49.042;8.002;2023-03-24T04:12:46;5.57;;;5.07;;
20423;SDS011;10371;49.042;8.002;2023-03-24T04:14:17;6.65;;;6.07;;
20423;SDS011;10371;49.042;8.002;2023-03-24T04:16:51;6.40;;;5.90;;
20423;SDS011;10371;49.042;8.002;2023-03-24T04:18:05;5.70;;;5.20;;
20423;SDS011;10371;49.042;8.002;2023-03-24T04:19:15;6.47;;;5.85;;
20423;SDS011;10371;49.042;8.002;2023-03-24T04:20:23;6.20;;;5.60;;
20423;SDS011;10371;49.042;8.002;2023-03-24T04:25:31;6.85;;;6.25;;
20423;SDS011;10371;49.042;8.002;2023-03-24T04:28:13;6.57;;;6.07;;
20423;SDS011;10371;49.042;8.002;2023-03-24T04:29:19;6.72;;;6.13;;
20423;SDS011;10371;49.042;8.002;2023-03-24T04:30:27;6.53;;;5.95;;
20423;SDS011;10371;49.042;8.002;2023-03-24T04:31:47;6.72;;;6.13;;
20423;SDS011;10371;49.042;8.002;2023-03-24T04:34:03;7.10;;;6.50;;
20423;SDS011;10371;49.042;8.002;2023-03-24T04:35:36;7.18;;;6.50;;
20423;SDS011;10371;49.042;8.002;2023-03-24T04:37:16;7.00;;;6.40;;
20423;SDS011;10371;49.042;8.002;2023-03-24T04:38:13;7.10;;;6.50;;
20423;SDS011;10371;49.042;8.002;2023-03-24T04:39:18;6.25;;;5.75;;
20423;SDS011;10371;49.042;8.002;2023-03-24T04:40:24;6.55;;;5.95;;
20423;SDS011;10371;49.042;8.002;2023-03-24T04:41:25;7.07;;;6.40;;
20423;SDS011;10371;49.042;8.002;2023-03-24T04:42:40;8.93;;;6.82;;
20423;SDS011;10371;49.042;8.002;2023-03-24T04:43:45;6.40;;;5.82;;
20423;SDS011;10371;49.042;8.002;2023-03-24T04:44:46;6.80;;;6.20;;
20423;SDS011;10371;49.042;8.002;2023-03-24T04:45:53;7.32;;;6.63;;
20423;SDS011;10371;49.042;8.002;2023-03-24T04:46:56;7.25;;;6.43;;
20423;SDS011;10371;49.042;8.002;2023-03-24T04:48:01;7.20;;;6.60;;
20423;SDS011;10371;49.042;8.002;2023-03-24T04:49:03;6.80;;;6.30;;
20423;SDS011;10371;49.042;8.002;2023-03-24T04:50:05;7.03;;;6.43;;
20423;SDS011;10371;49.042;8.002;2023-03-24T04:51:08;7.45;;;6.75;;
20423;SDS011;10371;49.042;8.002;2023-03-24T04:52:10;6.82;;;6.22;;
20423;SDS011;10371;49.042;8.002;2023-03-24T04:53:10;8.07;;;7.20;;
20423;SDS011;10371;49.042;8.002;2023-03-24T04:54:10;8.10;;;7.40;;
20423;SDS011;10371;49.042;8.002;2023-03-24T04:55:23;7.80;;;7.10;;
20423;SDS011;10371;49.042;8.002;2023-03-24T04:56:49;8.77;;;8.02;;
20423;SDS011;10371;49.042;8.002;2023-03-24T04:57:51;7.90;;;7.20;;
20423;SDS011;10371;49.042;8.002;2023-03-24T04:58:52;9.23;;;7.53;;
20423;SDS011;10371;49.042;8.002;2023-03-24T04:59:52;8.93;;;8.20;;
20423;SDS011;10371;49.042;8.002;2023-03-24T05:00:53;8.90;;;8.10;;
20423;SDS011;10371;49.042;8.002;2023-03-24T05:01:55;8.50;;;7.70;;
20423;SDS011;10371;49.042;8.002;2023-03-24T05:02:55;8.90;;;8.10;;
20423;SDS011;10371;49.042;8.002;2023-03-24T05:03:56;9.35;;;8.35;;
20423;SDS011;10371;49.042;8.002;2023-03-24T05:04:57;8.23;;;7.60;;
20423;SDS011;10371;49.042;8.002;2023-03-24T05:05:57;8.65;;;7.90;;
20423;SDS011;10371;49.042;8.002;2023-03-24T05:06:58;9.80;;;8.90;;
20423;SDS011;10371;49.042;8.002;2023-03-24T05:07:58;9.75;;;8.85;;
20423;SDS011;10371;49.042;8.002;2023-03-24T05:08:59;9.98;;;9.07;;
20423;SDS011;10371;49.042;8.002;2023-03-24T05:09:59;9.98;;;9.07;;
20423;SDS011;10371;49.042;8.002;2023-03-24T05:10:59;10.18;;;9.32;;
20423;SDS011;10371;49.042;8.002;2023-03-24T05:12:00;9.35;;;8.48;;
20423;SDS011;10371;49.042;8.002;2023-03-24T05:13:01;8.70;;;7.95;;
20423;SDS011;10371;49.042;8.002;2023-03-24T05:14:02;8.48;;;7.78;;
20423;SDS011;10371;49.042;8.002;2023-03-24T05:15:02;8.07;;;7.38;;
20423;SDS011;10371;49.042;8.002;2023-03-24T05:16:03;7.63;;;6.85;;
20423;SDS011;10371;49.042;8.002;2023-03-24T05:17:04;7.55;;;6.95;;
20423;SDS011;10371;49.042;8.002;2023-03-24T05:18:04;7.75;;;7.07;;
20423;SDS011;10371;49.042;8.002;2023-03-24T05:19:05;7.53;;;6.82;;
20423;SDS011;10371;49.042;8.002;2023-03-24T05:20:06;7.13;;;6.55;;
20423;SDS011;10371;49.042;8.002;2023-03-24T05:21:09;7.90;;;7.20;;
20423;SDS011;10371;49.042;8.002;2023-03-24T05:22:10;8.13;;;7.53;;
20423;SDS011;10371;49.042;8.002;2023-03-24T05:23:10;8.95;;;8.18;;
20423;SDS011;10371;49.042;8.002;2023-03-24T05:24:10;9.98;;;9.02;;
20423;SDS011;10371;49.042;8.002;2023-03-24T05:25:11;9.25;;;8.35;;
20423;SDS011;10371;49.042;8.002;2023-03-24T05:26:11;8.95;;;8.20;;
20423;SDS011;10371;49.042;8.002;2023-03-24T05:27:12;9.90;;;8.43;;
20423;SDS011;10371;49.042;8.002;2023-03-24T05:28:12;9.15;;;8.35;;
20423;SDS011;10371;49.042;8.002;2023-03-24T05:29:12;9.20;;;8.30;;
20423;SDS011;10371;49.042;8.002;2023-03-24T05:30:13;8.80;;;8.10;;
20423;SDS011;10371;49.042;8.002;2023-03-24T05:31:14;9.05;;;8.30;;
20423;SDS011;10371;49.042;8.002;2023-03-24T05:32:15;8.10;;;7.50;;
20423;SDS011;10371;49.042;8.002;2023-03-24T05:33:15;8.75;;;7.78;;
20423;SDS011;10371;49.042;8.002;2023-03-24T05:34:16;8.90;;;8.20;;
20423;SDS011;10371;49.042;8.002;2023-03-24T05:35:16;9.52;;;8.75;;
20423;SDS011;10371;49.042;8.002;2023-03-24T05:36:16;9.10;;;8.30;;
20423;SDS011;10371;49.042;8.002;2023-03-24T05:37:17;8.73;;;8.02;;
20423;SDS011;10371;49.042;8.002;2023-03-24T05:38:17;9.07;;;8.27;;
20423;SDS011;10371;49.042;8.002;2023-03-24T05:39:17;9.10;;;8.20;;
20423;SDS011;10371;49.042;8.002;2023-03-24T05:40:18;8.65;;;7.88;;
20423;SDS011;10371;49.042;8.002;2023-03-24T05:41:18;9.70;;;8.90;;
20423;SDS011;10371;49.042;8.002;2023-03-24T05:42:18;9.10;;;8.30;;
20423;SDS011;10371;49.042;8.002;2023-03-24T05:43:19;9.75;;;9.00;;
20423;SDS011;10371;49.042;8.002;2023-03-24T05:44:20;9.85;;;8.95;;
20423;SDS011;10371;49.042;8.002;2023-03-24T05:45:20;9.65;;;8.85;;
20423;SDS011;10371;49.042;8.002;2023-03-24T05:46:20;9.95;;;8.88;;
20423;SDS011;10371;49.042;8.002;2023-03-24T05:47:20;26.08;;;24.23;;
20423;SDS011;10371;49.042;8.002;2023-03-24T05:48:21;11.18;;;9.30;;
20423;SDS011;10371;49.042;8.002;2023-03-24T05:49:22;9.23;;;8.52;;
20423;SDS011;10371;49.042;8.002;2023-03-24T05:50:22;9.55;;;8.65;;
20423;SDS011;10371;49.042;8.002;2023-03-24T05:51:23;9.45;;;8.65;;
20423;SDS011;10371;49.042;8.002;2023-03-24T05:52:23;8.98;;;8.07;;
20423;SDS011;10371;49.042;8.002;2023-03-24T05:53:24;9.27;;;8.45;;
20423;SDS011;10371;49.042;8.002;2023-03-24T05:54:24;8.85;;;8.13;;
20423;SDS011;10371;49.042;8.002;2023-03-24T05:55:25;9.95;;;8.95;;
20423;SDS011;10371;49.042;8.002;2023-03-24T05:56:26;9.75;;;8.95;;
20423;SDS011;10371;49.042;8.002;2023-03-24T05:57:27;9.15;;;8.18;;
20423;SDS011;10371;49.042;8.002;2023-03-24T05:58:29;9.32;;;8.50;;
20423;SDS011;10371;49.042;8.002;2023-03-24T05:59:29;9.57;;;8.73;;
20423;SDS011;10371;49.042;8.002;2023-03-24T06:00:29;9.48;;;8.52;;
20423;SDS011;10371;49.042;8.002;2023-03-24T06:01:30;8.43;;;7.63;;
20423;SDS011;10371;49.042;8.002;2023-03-24T06:02:30;8.27;;;7.57;;
20423;SDS011;10371;49.042;8.002;2023-03-24T06:03:31;8.30;;;7.55;;
20423;SDS011;10371;49.042;8.002;2023-03-24T06:04:33;8.45;;;7.82;;
20423;SDS011;10371;49.042;8.002;2023-03-24T06:05:33;8.57;;;7.90;;
20423;SDS011;10371;49.042;8.002;2023-03-24T06:06:33;8.32;;;7.63;;
20423;SDS011;10371;49.042;8.002;2023-03-24T06:07:34;7.88;;;7.05;;
20423;SDS011;10371;49.042;8.002;2023-03-24T06:08:35;7.82;;;7.22;;
20423;SDS011;10371;49.042;8.002;2023-03-24T06:09:37;7.00;;;6.40;;
20423;SDS011;10371;49.042;8.002;2023-03-24T06:10:41;6.70;;;6.20;;
20423;SDS011;10371;49.042;8.002;2023-03-24T06:11:42;6.28;;;5.68;;
20423;SDS011;10371;49.042;8.002;2023-03-24T06:12:43;6.90;;;6.28;;
20423;SDS011;10371;49.042;8.002;2023-03-24T06:13:44;6.47;;;5.88;;
20423;SDS011;10371;49.042;8.002;2023-03-24T06:14:44;6.47;;;5.85;;
20423;SDS011;10371;49.042;8.002;2023-03-24T06:15:45;6.90;;;6.30;;
20423;SDS011;10371;49.042;8.002;2023-03-24T06:16:46;8.60;;;6.95;;
20423;SDS011;10371;49.042;8.002;2023-03-24T06:17:49;7.22;;;6.60;;
20423;SDS011;10371;49.042;8.002;2023-03-24T06:18:49;7.70;;;7.00;;
20423;SDS011;10371;49.042;8.002;2023-03-24T06:19:51;7.22;;;6.60;;
20423;SDS011;10371;49.042;8.002;2023-03-24T06:20:52;7.13;;;6.53;;
20423;SDS011;10371;49.042;8.002;2023-03-24T06:21:59;6.95;;;6.35;;
20423;SDS011;10371;49.042;8.002;2023-03-24T06:23:01;7.40;;;6.80;;
20423;SDS011;10371;49.042;8.002;2023-03-24T06:24:02;7.47;;;6.88;;
20423;SDS011;10371;49.042;8.002;2023-03-24T06:25:03;7.85;;;7.20;;
20423;SDS011;10371;49.042;8.002;2023-03-24T06:26:06;9.20;;;8.30;;
20423;SDS011;10371;49.042;8.002;2023-03-24T06:27:09;9.35;;;8.52;;
20423;SDS011;10371;49.042;8.002;2023-03-24T06:28:10;9.80;;;8.90;;
20423;SDS011;10371;49.042;8.002;2023-03-24T06:29:11;9.13;;;8.32;;
20423;SDS011;10371;49.042;8.002;2023-03-24T06:30:12;8.32;;;7.72;;
20423;SDS011;10371;49.042;8.002;2023-03-24T06:31:14;7.30;;;6.70;;
20423;SDS011;10371;49.042;8.002;2023-03-24T06:32:17;6.88;;;6.28;;
20423;SDS011;10371;49.042;8.002;2023-03-24T06:33:18;7.18;;;6.47;;
20423;SDS011;10371;49.042;8.002;2023-03-24T06:34:21;6.80;;;6.10;;
20423;SDS011;10371;49.042;8.002;2023-03-24T06:35:23;6.90;;;6.30;;
20423;SDS011;10371;49.042;8.002;2023-03-24T06:36:24;6.90;;;6.30;;
20423;SDS011;10371;49.042;8.002;2023-03-24T06:37:24;7.25;;;6.65;;
20423;SDS011;10371;49.042;8.002;2023-03-24T06:38:26;7.68;;;7.07;;
20423;SDS011;10371;49.042;8.002;2023-03-24T06:39:26;7.55;;;6.80;;
20423;SDS011;10371;49.042;8.002;2023-03-24T06:40:26;7.80;;;7.20;;
20423;SDS011;10371;49.042;8.002;2023-03-24T06:41:27;7.95;;;7.15;;
20423;SDS011;10371;49.042;8.002;2023-03-24T06:42:27;8.20;;;7.50;;
20423;SDS011;10371;49.042;8.002;2023-03-24T06:43:27;7.68;;;6.97;;
20423;SDS011;10371;49.042;8.002;2023-03-24T06:44:28;7.93;;;7.18;;
20423;SDS011;10371;49.042;8.002;2023-03-24T06:45:29;6.38;;;5.82;;
20423;SDS011;10371;49.042;8.002;2023-03-24T06:46:30;6.22;;;5.63;;
20423;SDS011;10371;49.042;8.002;2023-03-24T06:47:30;5.03;;;4.53;;
20423;SDS011;10371;49.042;8.002;2023-03-24T06:48:30;5.65;;;5.20;;
20423;SDS011;10371;49.042;8.002;2023-03-24T06:49:31;5.93;;;5.47;;
20423;SDS011;10371;49.042;8.002;2023-03-24T06:50:33;5.93;;;5.53;;
20423;SDS011;10371;49.042;8.002;2023-03-24T06:51:34;5.80;;;5.40;;
20423;SDS011;10371;49.042;8.002;2023-03-24T06:52:34;5.30;;;4.90;;
20423;SDS011;10371;49.042;8.002;2023-03-24T06:53:35;5.65;;;5.28;;
20423;SDS011;10371;49.042;8.002;2023-03-24T06:54:36;5.47;;;5.07;;
20423;SDS011;10371;49.042;8.002;2023-03-24T06:55:36;7.47;;;6.10;;
20423;SDS011;10371;49.042;8.002;2023-03-24T06:56:37;5.80;;;5.30;;
20423;SDS011;10371;49.042;8.002;2023-03-24T06:57:37;5.93;;;5.43;;
20423;SDS011;10371;49.042;8.002;2023-03-24T06:58:37;5.90;;;5.35;;
20423;SDS011;10371;49.042;8.002;2023-03-24T06:59:37;6.13;;;5.57;;
20423;SDS011;10371;49.042;8.002;2023-03-24T07:00:38;6.95;;;6.35;;
20423;SDS011;10371;49.042;8.002;2023-03-24T07:01:38;6.97;;;6.30;;
20423;SDS011;10371;49.042;8.002;2023-03-24T07:02:39;7.30;;;6.60;;
20423;SDS011;10371;49.042;8.002;2023-03-24T07:03:39;6.60;;;6.00;;
20423;SDS011;10371;49.042;8.002;2023-03-24T07:04:41;8.15;;;7.35;;
20423;SDS011;10371;49.042;8.002;2023-03-24T07:05:42;7.72;;;7.03;;
20423;SDS011;10371;49.042;8.002;2023-03-24T07:06:44;6.70;;;6.00;;
20423;SDS011;10371;49.042;8.002;2023-03-24T07:07:44;6.63;;;5.70;;
20423;SDS011;10371;49.042;8.002;2023-03-24T07:08:45;6.07;;;5.57;;
20423;SDS011;10371;49.042;8.002;2023-03-24T07:09:45;5.80;;;5.40;;
20423;SDS011;10371;49.042;8.002;2023-03-24T07:10:46;5.68;;;5.28;;